ンジャメナ の空港の天気 - METARとTAF

ンジャメナ国際空港 ( FTTJ / NDJ ) - チャド ンジャメナ
飛行場実況気象(Metar)
観測時間04/10 06:00 WAT (04/10 05:00 UTC)
風向・風速北 5m/s
視程3000m
天気現象風塵
なし
気温29℃
湿度14%
気圧1009hPa
METARFTTJ 100500Z 01010KT 3000 DU NSC 29/M01 Q1009 NOSIG
過去の天気等 Google飛行場航空写真 Wunderground天気予報

過去48時間のMETAR

飛行場予報(TAF)
発表時間: 4/10 00:00 WAT (4/09 23:00 UTC)
予報対象時間: 10日1時 WAT ~ 11日7時 WAT
風向・風速北 3m/s
視程6000m
なし
10日3時 WAT ~ 10日8時 WAT に一時的に
視程2500m
10日8時 WAT ~ 10日15時 WAT に一時的に
風向・風速東北東 7m/s
視程4000m
天気現象高い風塵
TAF FTTJ 092300Z 1000/1106 36006KT 6000 NSC
TEMPO 1002/1007 2500
TEMPO 1007/1014 06014KT 4000 BLDU